Time;durP1;ratioP1;P1;durP2;ratioP2;P2;SDS_P1;SDS_P2;PMS_P1;PMS_P2;Temp;Humidity;BMP_temperature;BMP_pressure;BME280_temperature;BME280_humidity;BME280_pressure;Samples;Min_cycle;Max_cycle;Signal;HPM_P1;HPM_P2
2022/11/07 00:00:10;;;;;;;1.55;0.73;;;;;;;;;;5036710;28;20045;-65
2022/11/07 00:02:37;;;;;;;1.38;0.73;;;;;;;;;;5036790;28;20033;-64
2022/11/07 00:05:04;;;;;;;4.28;1.70;;;;;;;;;;5034762;28;20041;-64
2022/11/07 00:07:31;;;;;;;3.72;1.63;;;;;;;;;;5032610;28;20029;-63
2022/11/07 00:09:58;;;;;;;2.45;1.40;;;;;;;;;;5035359;28;20060;-63
2022/11/07 00:12:24;;;;;;;1.35;0.70;;;;;;;;;;5038184;28;20163;-62
2022/11/07 00:14:51;;;;;;;3.33;1.50;;;;;;;;;;5042428;28;20584;-62
2022/11/07 00:17:18;;;;;;;7.28;1.48;;;;;;;;;;5042331;28;20079;-62
2022/11/07 00:19:44;;;;;;;2.67;1.42;;;;;;;;;;5039408;28;20445;-65
2022/11/07 00:22:11;;;;;;;6.13;1.70;;;;;;;;;;5046666;28;20052;-62
2022/11/07 00:24:38;;;;;;;1.45;0.73;;;;;;;;;;5018090;28;20064;-66
2022/11/07 00:27:04;;;;;;;3.65;1.60;;;;;;;;;;5034704;28;20649;-62
2022/11/07 00:29:31;;;;;;;3.40;1.52;;;;;;;;;;5017070;28;20052;-62
2022/11/07 00:31:58;;;;;;;4.35;1.88;;;;;;;;;;5019017;28;20047;-63
2022/11/07 00:34:25;;;;;;;3.15;1.48;;;;;;;;;;5019833;28;20627;-64
2022/11/07 00:36:51;;;;;;;1.33;0.75;;;;;;;;;;5019265;28;20038;-64
2022/11/07 00:39:18;;;;;;;1.17;0.70;;;;;;;;;;5020233;28;20667;-63
2022/11/07 00:41:47;;;;;;;2.45;0.98;;;;;;;;;;5020191;28;20049;-62
2022/11/07 00:44:14;;;;;;;2.63;1.08;;;;;;;;;;5022561;28;20050;-65
2022/11/07 00:46:40;;;;;;;4.20;2.08;;;;;;;;;;5017465;28;20059;-64
2022/11/07 00:49:07;;;;;;;4.35;1.58;;;;;;;;;;5018883;28;20038;-62
2022/11/07 00:51:33;;;;;;;4.65;1.95;;;;;;;;;;5019173;28;20092;-64
2022/11/07 00:54:02;;;;;;;1.63;0.88;;;;;;;;;;5018952;28;20477;-63
2022/11/07 00:56:28;;;;;;;3.28;1.50;;;;;;;;;;5020158;28;20462;-63
2022/11/07 00:58:55;;;;;;;3.75;1.42;;;;;;;;;;5020896;28;20117;-67
2022/11/07 01:01:23;;;;;;;2.92;1.42;;;;;;;;;;5020086;28;20439;-63
2022/11/07 01:06:37;;;;;;;5.47;2.15;;;;;;;;;;5018670;28;20233;-64
2022/11/07 01:09:05;;;;;;;5.15;2.17;;;;;;;;;;5019236;28;20040;-62
2022/11/07 01:11:32;;;;;;;8.45;2.00;;;;;;;;;;5017432;28;20030;-64
2022/11/07 01:13:59;;;;;;;4.00;1.80;;;;;;;;;;5018414;28;20034;-62
2022/11/07 01:16:26;;;;;;;3.30;1.50;;;;;;;;;;5029597;28;20033;-61
2022/11/07 01:18:53;;;;;;;4.43;1.88;;;;;;;;;;5039140;28;20029;-62
2022/11/07 01:21:20;;;;;;;4.85;2.33;;;;;;;;;;5039023;28;20079;-61
2022/11/07 01:23:47;;;;;;;4.55;2.15;;;;;;;;;;5042926;28;20040;-63
2022/11/07 01:26:13;;;;;;;3.97;1.63;;;;;;;;;;5042046;28;20048;-61
2022/11/07 01:28:40;;;;;;;3.67;1.83;;;;;;;;;;5050203;28;20037;-62
2022/11/07 01:31:08;;;;;;;3.83;2.08;;;;;;;;;;5039435;28;20808;-62
2022/11/07 01:33:36;;;;;;;5.90;2.20;;;;;;;;;;5038721;28;20047;-66
2022/11/07 01:36:03;;;;;;;3.38;1.70;;;;;;;;;;5039842;28;20497;-64
2022/11/07 01:38:29;;;;;;;2.97;1.02;;;;;;;;;;5037219;28;20148;-61
2022/11/07 01:43:43;;;;;;;5.07;2.40;;;;;;;;;;5036946;28;20083;-61
2022/11/07 01:46:09;;;;;;;5.68;1.77;;;;;;;;;;5038300;28;20453;-63
2022/11/07 01:48:36;;;;;;;4.07;1.90;;;;;;;;;;5037786;28;20033;-59
2022/11/07 01:51:03;;;;;;;3.33;1.30;;;;;;;;;;5040248;28;20059;-61
2022/11/07 01:53:29;;;;;;;2.65;1.40;;;;;;;;;;5036050;28;20037;-61
2022/11/07 01:55:56;;;;;;;2.30;1.15;;;;;;;;;;5038708;28;20805;-62
2022/11/07 01:58:23;;;;;;;1.67;0.80;;;;;;;;;;5038913;28;20033;-64
2022/11/07 02:00:49;;;;;;;3.13;1.60;;;;;;;;;;5040288;28;20040;-60
2022/11/07 02:03:17;;;;;;;5.00;2.83;;;;;;;;;;5034587;28;20138;-63
2022/11/07 02:05:48;;;;;;;1.42;0.70;;;;;;;;;;5013246;28;20038;-63
2022/11/07 02:08:16;;;;;;;4.38;1.77;;;;;;;;;;5034499;28;20048;-63
2022/11/07 02:10:43;;;;;;;4.95;1.88;;;;;;;;;;5036847;28;20481;-61
2022/11/07 02:13:13;;;;;;;4.43;1.95;;;;;;;;;;5039182;28;20473;-61
2022/11/07 02:15:40;;;;;;;5.57;2.55;;;;;;;;;;5051404;28;20151;-61
2022/11/07 02:18:06;;;;;;;4.28;2.22;;;;;;;;;;5038889;28;20095;-63
2022/11/07 02:20:33;;;;;;;3.25;1.83;;;;;;;;;;5038311;28;20044;-62
2022/11/07 02:23:03;;;;;;;3.40;1.70;;;;;;;;;;5031550;28;20501;-62
2022/11/07 02:25:30;;;;;;;3.67;1.88;;;;;;;;;;5038957;28;20729;-61
2022/11/07 02:27:58;;;;;;;2.65;1.25;;;;;;;;;;5038778;28;20045;-62
2022/11/07 02:30:26;;;;;;;4.30;1.92;;;;;;;;;;5037697;28;20037;-62
2022/11/07 02:32:53;;;;;;;7.55;2.40;;;;;;;;;;5037031;28;20112;-63
2022/11/07 02:35:39;;;;;;;5.28;2.88;;;;;;;;;;5037164;28;20052;-62
2022/11/07 02:38:08;;;;;;;4.60;2.38;;;;;;;;;;5036226;28;20583;-62
2022/11/07 02:40:35;;;;;;;4.22;1.90;;;;;;;;;;5037666;28;20124;-62
2022/11/07 02:43:02;;;;;;;6.88;3.28;;;;;;;;;;5037568;28;20044;-62
2022/11/07 02:45:31;;;;;;;4.13;1.75;;;;;;;;;;5038569;28;20304;-61
2022/11/07 02:47:58;;;;;;;3.53;1.90;;;;;;;;;;5037968;28;20398;-61
2022/11/07 02:50:24;;;;;;;6.35;3.58;;;;;;;;;;5038867;28;20041;-62
2022/11/07 02:52:51;;;;;;;16.27;1.98;;;;;;;;;;5037961;28;20577;-60
2022/11/07 02:55:18;;;;;;;6.93;3.80;;;;;;;;;;5036941;28;20147;-62
2022/11/07 02:57:44;;;;;;;4.80;2.20;;;;;;;;;;5036845;28;20044;-63
2022/11/07 03:00:12;;;;;;;7.45;3.40;;;;;;;;;;5038002;28;20045;-64
2022/11/07 03:02:39;;;;;;;4.60;2.28;;;;;;;;;;5034432;28;20051;-64
2022/11/07 03:05:06;;;;;;;6.00;3.55;;;;;;;;;;5039473;28;20570;-63
2022/11/07 03:07:33;;;;;;;7.47;3.55;;;;;;;;;;5037354;28;20068;-64
2022/11/07 03:09:59;;;;;;;5.18;2.83;;;;;;;;;;5039105;28;20045;-63
2022/11/07 03:12:26;;;;;;;5.15;2.60;;;;;;;;;;5037370;28;20055;-65
2022/11/07 03:14:53;;;;;;;5.82;3.33;;;;;;;;;;5036949;28;20128;-63
2022/11/07 03:17:19;;;;;;;4.68;2.25;;;;;;;;;;5036870;28;20110;-63
2022/11/07 03:19:46;;;;;;;5.55;2.05;;;;;;;;;;5037728;28;20041;-62
2022/11/07 03:22:12;;;;;;;5.72;2.28;;;;;;;;;;5036892;28;20421;-62
2022/11/07 03:24:39;;;;;;;5.95;3.17;;;;;;;;;;5043146;28;20037;-65
2022/11/07 03:27:06;;;;;;;5.68;2.78;;;;;;;;;;5038388;28;20049;-64
2022/11/07 03:29:32;;;;;;;5.05;2.40;;;;;;;;;;5060048;28;20118;-61
2022/11/07 03:31:59;;;;;;;5.30;3.08;;;;;;;;;;5040278;28;20075;-62
2022/11/07 03:34:25;;;;;;;5.95;2.38;;;;;;;;;;5037034;28;20109;-62
2022/11/07 03:36:52;;;;;;;5.78;2.85;;;;;;;;;;5037198;28;20380;-64
2022/11/07 03:39:18;;;;;;;4.57;2.80;;;;;;;;;;5036851;28;20742;-65
2022/11/07 03:41:45;;;;;;;5.20;2.70;;;;;;;;;;5036832;28;20108;-63
2022/11/07 03:44:12;;;;;;;5.22;3.00;;;;;;;;;;5037813;28;20044;-63
2022/11/07 03:46:38;;;;;;;5.30;2.97;;;;;;;;;;5036021;28;20132;-65
2022/11/07 03:49:05;;;;;;;7.60;3.92;;;;;;;;;;5042193;28;20538;-64
2022/11/07 03:51:31;;;;;;;7.28;3.85;;;;;;;;;;5039560;28;20155;-64
2022/11/07 03:53:58;;;;;;;8.05;4.30;;;;;;;;;;5040771;28;20927;-64
2022/11/07 03:56:24;;;;;;;7.30;4.55;;;;;;;;;;5050235;28;20099;-62
2022/11/07 03:58:51;;;;;;;7.10;3.92;;;;;;;;;;5041955;28;20033;-65
2022/11/07 04:01:18;;;;;;;6.63;2.55;;;;;;;;;;5040268;28;20044;-67
2022/11/07 04:03:44;;;;;;;5.47;2.72;;;;;;;;;;5041866;28;20072;-65
2022/11/07 04:06:11;;;;;;;6.70;3.40;;;;;;;;;;5041091;28;20079;-64
2022/11/07 04:08:37;;;;;;;6.78;3.60;;;;;;;;;;5041229;28;25574;-64
2022/11/07 04:11:04;;;;;;;7.20;3.63;;;;;;;;;;5042368;28;20136;-65
2022/11/07 04:19:03;;;;;;;5.95;3.15;;;;;;;;;;5043389;28;20048;-64
2022/11/07 04:21:29;;;;;;;8.57;4.20;;;;;;;;;;5042366;28;20044;-65
2022/11/07 04:23:56;;;;;;;5.85;3.70;;;;;;;;;;5033087;28;20033;-63
2022/11/07 04:29:08;;;;;;;6.45;3.45;;;;;;;;;;5040693;28;20043;-60
2022/11/07 04:31:34;;;;;;;8.60;3.45;;;;;;;;;;5039516;28;20037;-62
2022/11/07 04:34:01;;;;;;;5.70;3.33;;;;;;;;;;5056610;28;20099;-61
2022/11/07 04:36:27;;;;;;;7.70;4.82;;;;;;;;;;5041268;28;20597;-62
2022/11/07 04:38:54;;;;;;;7.22;3.97;;;;;;;;;;5043494;28;20064;-61
2022/11/07 04:41:23;;;;;;;4.88;2.50;;;;;;;;;;5024935;28;20868;-62
2022/11/07 04:44:09;;;;;;;3.17;1.58;;;;;;;;;;5006753;28;20041;-64
2022/11/07 04:46:36;;;;;;;6.03;3.13;;;;;;;;;;5004871;28;20069;-61
2022/11/07 04:49:02;;;;;;;6.85;3.08;;;;;;;;;;4996053;28;20030;-57
2022/11/07 04:51:29;;;;;;;6.80;3.90;;;;;;;;;;5003886;28;20169;-61
2022/11/07 04:53:55;;;;;;;6.82;3.45;;;;;;;;;;5017439;28;20041;-62
2022/11/07 04:56:22;;;;;;;8.02;4.00;;;;;;;;;;5016923;28;20053;-62
2022/11/07 04:58:49;;;;;;;5.68;3.17;;;;;;;;;;5042304;28;20045;-63
2022/11/07 05:01:17;;;;;;;8.50;4.18;;;;;;;;;;5025726;28;20040;-61
2022/11/07 05:03:43;;;;;;;5.25;3.15;;;;;;;;;;5026412;28;20950;-63
2022/11/07 05:06:13;;;;;;;6.80;3.63;;;;;;;;;;5028072;28;20038;-63
2022/11/07 05:08:40;;;;;;;3.17;1.42;;;;;;;;;;5026322;28;20037;-63
2022/11/07 05:11:06;;;;;;;6.30;4.10;;;;;;;;;;5023686;28;20188;-63
2022/11/07 05:13:33;;;;;;;9.57;3.88;;;;;;;;;;5024989;28;20488;-63
2022/11/07 05:16:00;;;;;;;7.22;4.05;;;;;;;;;;5046355;28;20045;-62
2022/11/07 05:18:26;;;;;;;6.53;3.17;;;;;;;;;;5057766;28;20180;-64
2022/11/07 05:21:13;;;;;;;7.38;3.65;;;;;;;;;;5040760;28;20037;-62
2022/11/07 05:23:39;;;;;;;5.20;2.28;;;;;;;;;;5048146;28;20047;-61
2022/11/07 05:26:06;;;;;;;13.27;3.78;;;;;;;;;;5048001;28;21870;-62
2022/11/07 05:28:33;;;;;;;6.30;3.25;;;;;;;;;;5047761;28;20029;-63
2022/11/07 05:31:00;;;;;;;6.20;2.45;;;;;;;;;;5046517;28;20485;-64
2022/11/07 05:33:27;;;;;;;6.53;3.05;;;;;;;;;;5046417;28;20056;-61
2022/11/07 05:35:54;;;;;;;3.30;1.73;;;;;;;;;;5047401;28;20090;-62
2022/11/07 05:38:20;;;;;;;5.05;2.03;;;;;;;;;;5043732;28;20511;-66
2022/11/07 05:40:47;;;;;;;5.63;2.38;;;;;;;;;;5048059;28;20540;-62
2022/11/07 05:43:14;;;;;;;4.13;1.88;;;;;;;;;;5044306;28;20052;-61
2022/11/07 05:45:41;;;;;;;4.60;2.30;;;;;;;;;;5036832;28;20566;-62
2022/11/07 05:48:09;;;;;;;2.72;1.35;;;;;;;;;;5047343;28;20411;-62
2022/11/07 05:50:37;;;;;;;3.72;1.63;;;;;;;;;;5045767;28;20051;-62
2022/11/07 05:53:04;;;;;;;5.05;2.03;;;;;;;;;;5032517;28;20036;-63
2022/11/07 05:55:31;;;;;;;4.60;2.20;;;;;;;;;;5037203;28;20046;-62
2022/11/07 05:57:58;;;;;;;5.13;2.00;;;;;;;;;;5039060;28;20033;-62
2022/11/07 06:00:25;;;;;;;4.20;1.67;;;;;;;;;;5037502;28;20048;-61
2022/11/07 06:02:56;;;;;;;5.30;2.00;;;;;;;;;;5045928;28;20021;-61
2022/11/07 06:05:23;;;;;;;4.43;2.00;;;;;;;;;;5039325;28;20437;-62
2022/11/07 06:07:49;;;;;;;3.78;1.83;;;;;;;;;;5038277;28;20044;-61
2022/11/07 06:10:16;;;;;;;4.35;1.67;;;;;;;;;;5038123;28;20053;-65
2022/11/07 06:12:42;;;;;;;3.25;1.45;;;;;;;;;;5035918;28;20037;-61
2022/11/07 06:15:09;;;;;;;4.75;1.95;;;;;;;;;;5045176;28;20063;-62
2022/11/07 06:17:36;;;;;;;4.00;1.67;;;;;;;;;;5035831;28;20040;-62
2022/11/07 06:20:03;;;;;;;4.72;2.17;;;;;;;;;;5039293;28;20124;-61
2022/11/07 06:22:30;;;;;;;4.60;1.45;;;;;;;;;;5026553;28;20037;-61
2022/11/07 06:24:57;;;;;;;7.03;2.00;;;;;;;;;;5039510;28;20363;-64
2022/11/07 06:27:23;;;;;;;6.40;1.73;;;;;;;;;;5037171;28;20929;-61
2022/11/07 06:29:50;;;;;;;4.28;1.90;;;;;;;;;;5039556;28;20090;-63
2022/11/07 06:32:16;;;;;;;4.28;1.80;;;;;;;;;;5037543;28;20041;-64
2022/11/07 06:34:43;;;;;;;1.27;0.68;;;;;;;;;;5044762;28;20051;-63
2022/11/07 06:37:10;;;;;;;5.25;1.73;;;;;;;;;;5044305;28;20064;-64
2022/11/07 06:39:56;;;;;;;5.63;2.10;;;;;;;;;;5032110;28;20658;-62
2022/11/07 06:42:25;;;;;;;4.28;2.00;;;;;;;;;;5024834;28;20052;-61
2022/11/07 06:44:52;;;;;;;4.65;2.30;;;;;;;;;;5028787;28;20048;-64
2022/11/07 06:47:19;;;;;;;3.25;1.40;;;;;;;;;;5024948;28;20043;-68
2022/11/07 06:49:46;;;;;;;3.45;1.35;;;;;;;;;;5025745;28;20080;-63
2022/11/07 06:52:13;;;;;;;3.72;1.27;;;;;;;;;;5025517;28;20826;-62
2022/11/07 06:54:39;;;;;;;3.17;1.67;;;;;;;;;;5024684;28;20089;-60
2022/11/07 06:57:06;;;;;;;6.95;1.98;;;;;;;;;;5025583;28;20041;-63
2022/11/07 06:59:32;;;;;;;1.77;0.75;;;;;;;;;;5023465;28;20079;-64
2022/11/07 07:01:59;;;;;;;3.72;1.63;;;;;;;;;;5020799;28;20079;-64
2022/11/07 07:04:26;;;;;;;3.15;1.42;;;;;;;;;;5026091;28;20558;-61
2022/11/07 07:06:52;;;;;;;2.78;1.55;;;;;;;;;;5026340;28;20037;-63
2022/11/07 07:09:19;;;;;;;3.58;2.08;;;;;;;;;;5024676;28;20061;-61
2022/11/07 07:11:47;;;;;;;3.97;1.95;;;;;;;;;;5027022;28;20128;-62
2022/11/07 07:14:13;;;;;;;2.60;1.10;;;;;;;;;;5026994;28;20037;-66
2022/11/07 07:16:40;;;;;;;5.07;2.58;;;;;;;;;;5024872;28;20087;-64
2022/11/07 07:19:06;;;;;;;6.60;3.17;;;;;;;;;;5020573;28;20041;-64
2022/11/07 07:21:33;;;;;;;3.20;1.50;;;;;;;;;;5019043;28;20083;-64
2022/11/07 07:24:00;;;;;;;3.00;1.42;;;;;;;;;;5021913;28;20044;-63
2022/11/07 07:26:27;;;;;;;4.50;1.48;;;;;;;;;;5035271;28;20052;-63
2022/11/07 07:28:54;;;;;;;2.97;1.50;;;;;;;;;;5041993;28;20044;-63
2022/11/07 07:31:25;;;;;;;2.90;1.40;;;;;;;;;;5040299;28;20456;-64
2022/11/07 07:33:51;;;;;;;3.75;1.70;;;;;;;;;;5042486;28;20045;-64
2022/11/07 07:36:19;;;;;;;2.35;1.08;;;;;;;;;;5042114;28;20106;-62
2022/11/07 07:38:46;;;;;;;2.95;1.33;;;;;;;;;;5041582;28;20569;-65
2022/11/07 07:41:13;;;;;;;2.55;1.05;;;;;;;;;;5041336;28;20037;-63
2022/11/07 07:43:39;;;;;;;3.33;1.40;;;;;;;;;;5029800;28;20044;-62
2022/11/07 07:46:07;;;;;;;2.15;1.00;;;;;;;;;;5030177;28;20577;-64
2022/11/07 07:48:34;;;;;;;4.07;1.20;;;;;;;;;;5039622;28;20513;-64
2022/11/07 07:51:01;;;;;;;4.43;1.98;;;;;;;;;;5039780;28;20033;-64
2022/11/07 07:53:28;;;;;;;2.28;1.05;;;;;;;;;;5036199;28;20037;-62
2022/11/07 07:55:58;;;;;;;4.05;1.60;;;;;;;;;;5022613;28;20100;-68
2022/11/07 07:58:25;;;;;;;4.40;1.52;;;;;;;;;;5021467;28;20069;-61
2022/11/07 08:00:52;;;;;;;3.10;1.50;;;;;;;;;;5019979;28;20900;-63
2022/11/07 08:03:19;;;;;;;3.97;1.42;;;;;;;;;;5038313;28;20873;-64
2022/11/07 08:05:51;;;;;;;3.90;1.80;;;;;;;;;;5041147;28;20038;-64
2022/11/07 08:08:18;;;;;;;3.42;1.23;;;;;;;;;;5040365;28;20068;-63
2022/11/07 08:10:45;;;;;;;3.88;1.50;;;;;;;;;;5037878;28;20064;-60
2022/11/07 08:13:11;;;;;;;1.52;0.88;;;;;;;;;;5046240;28;20037;-61
2022/11/07 08:15:38;;;;;;;3.13;1.30;;;;;;;;;;5040189;28;20080;-62
2022/11/07 08:18:04;;;;;;;3.40;1.20;;;;;;;;;;5039400;28;20079;-61
2022/11/07 08:20:31;;;;;;;1.27;0.70;;;;;;;;;;5038452;28;20037;-64
2022/11/07 08:23:05;;;;;;;2.17;1.25;;;;;;;;;;5041949;28;20044;-64
2022/11/07 08:25:32;;;;;;;4.00;1.50;;;;;;;;;;5039223;28;20490;-62
2022/11/07 08:27:59;;;;;;;2.88;1.20;;;;;;;;;;5037200;28;20041;-61
2022/11/07 08:30:30;;;;;;;3.30;1.70;;;;;;;;;;5040470;28;20074;-63
2022/11/07 08:33:00;;;;;;;3.15;1.23;;;;;;;;;;5039359;28;20041;-63
2022/11/07 08:35:27;;;;;;;2.38;1.13;;;;;;;;;;5046963;28;20072;-65
2022/11/07 08:37:53;;;;;;;2.25;0.93;;;;;;;;;;5041631;28;20041;-62
2022/11/07 08:40:23;;;;;;;2.83;1.05;;;;;;;;;;5038421;28;20764;-62
2022/11/07 08:42:49;;;;;;;3.05;1.27;;;;;;;;;;5052545;28;20074;-63
2022/11/07 08:45:16;;;;;;;3.58;1.35;;;;;;;;;;5041273;28;20090;-63
2022/11/07 08:47:43;;;;;;;2.47;1.05;;;;;;;;;;5052934;28;20047;-63
2022/11/07 08:50:09;;;;;;;1.45;0.63;;;;;;;;;;5039517;28;20429;-61
2022/11/07 08:52:36;;;;;;;1.00;0.40;;;;;;;;;;5036267;28;20125;-61
2022/11/07 08:55:03;;;;;;;3.15;1.35;;;;;;;;;;5019357;28;20049;-61
2022/11/07 08:57:30;;;;;;;3.10;1.50;;;;;;;;;;5036948;28;20086;-61
2022/11/07 08:59:56;;;;;;;2.75;1.13;;;;;;;;;;5048847;28;20056;-62
2022/11/07 09:02:23;;;;;;;3.30;1.17;;;;;;;;;;5040279;28;20857;-63
2022/11/07 09:04:50;;;;;;;4.53;2.10;;;;;;;;;;5039662;28;20048;-61
2022/11/07 09:07:16;;;;;;;2.13;1.00;;;;;;;;;;5032575;28;20123;-61
2022/11/07 09:09:43;;;;;;;3.20;1.30;;;;;;;;;;5037622;28;20499;-62
2022/11/07 09:12:10;;;;;;;3.47;1.30;;;;;;;;;;5039034;28;20132;-62
2022/11/07 09:14:36;;;;;;;2.45;1.08;;;;;;;;;;5046934;28;20122;-61
2022/11/07 09:17:03;;;;;;;2.95;1.08;;;;;;;;;;5038999;28;20053;-60
2022/11/07 09:19:29;;;;;;;3.25;1.23;;;;;;;;;;5040306;28;20051;-63
2022/11/07 09:21:57;;;;;;;3.33;1.30;;;;;;;;;;5036483;28;20223;-60
2022/11/07 09:24:23;;;;;;;1.40;0.77;;;;;;;;;;5033659;28;20037;-60
2022/11/07 09:26:50;;;;;;;1.33;0.60;;;;;;;;;;5042278;28;20033;-61
2022/11/07 09:29:17;;;;;;;3.00;1.08;;;;;;;;;;5037968;28;20123;-60
2022/11/07 09:31:43;;;;;;;2.47;0.95;;;;;;;;;;5038266;28;20032;-61
2022/11/07 09:34:10;;;;;;;3.30;1.45;;;;;;;;;;5039602;28;20048;-62
2022/11/07 09:36:36;;;;;;;3.00;1.25;;;;;;;;;;5039831;28;20048;-61
2022/11/07 09:39:03;;;;;;;11.10;1.02;;;;;;;;;;5036636;28;20055;-62
2022/11/07 09:41:48;;;;;;;1.98;1.00;;;;;;;;;;5027200;28;20157;-62
2022/11/07 09:44:15;;;;;;;4.07;1.63;;;;;;;;;;5038387;28;20068;-62
2022/11/07 09:47:00;;;;;;;5.50;1.67;;;;;;;;;;5028979;28;20041;-62
2022/11/07 09:49:45;;;;;;;4.82;1.98;;;;;;;;;;5038257;28;20029;-62
2022/11/07 09:52:24;;;;;;;3.53;1.45;;;;;;;;;;5037566;28;20073;-60
2022/11/07 09:54:58;;;;;;;3.05;1.23;;;;;;;;;;5026543;28;20114;-61
2022/11/07 09:57:26;;;;;;;2.08;0.93;;;;;;;;;;5038812;28;20042;-63
2022/11/07 09:59:52;;;;;;;3.10;1.30;;;;;;;;;;5038274;28;20136;-61
2022/11/07 10:02:21;;;;;;;4.18;1.85;;;;;;;;;;5039229;28;20174;-62
2022/11/07 10:04:52;;;;;;;1.77;1.02;;;;;;;;;;5041572;28;20044;-61
2022/11/07 10:07:37;;;;;;;5.43;2.17;;;;;;;;;;5038756;28;20541;-63
2022/11/07 10:10:07;;;;;;;2.45;1.10;;;;;;;;;;5038435;28;20405;-62
2022/11/07 10:12:52;;;;;;;5.00;2.00;;;;;;;;;;5039452;28;20033;-61
2022/11/07 10:15:23;;;;;;;3.50;1.52;;;;;;;;;;5038796;28;20052;-59
2022/11/07 10:17:56;;;;;;;6.55;1.98;;;;;;;;;;5038510;28;20049;-62
2022/11/07 10:20:23;;;;;;;2.40;1.30;;;;;;;;;;5037771;28;20037;-63
2022/11/07 10:23:01;;;;;;;2.35;1.15;;;;;;;;;;5039690;28;20409;-63
2022/11/07 10:25:45;;;;;;;12.65;1.85;;;;;;;;;;5042016;28;20378;-63
2022/11/07 10:28:14;;;;;;;2.90;1.42;;;;;;;;;;5039262;28;20064;-60
2022/11/07 10:30:42;;;;;;;5.60;1.13;;;;;;;;;;5039038;28;21639;-61
2022/11/07 10:33:11;;;;;;;2.90;1.27;;;;;;;;;;5039127;28;20044;-60
2022/11/07 10:35:41;;;;;;;3.42;1.70;;;;;;;;;;5037607;28;20068;-58
2022/11/07 10:38:19;;;;;;;6.30;1.55;;;;;;;;;;5039542;28;20033;-61
2022/11/07 10:40:46;;;;;;;2.35;1.15;;;;;;;;;;5037656;28;20165;-60
2022/11/07 10:43:20;;;;;;;2.85;1.30;;;;;;;;;;5037569;28;20052;-61
2022/11/07 10:45:47;;;;;;;4.30;1.63;;;;;;;;;;5039695;28;20041;-63
2022/11/07 10:48:13;;;;;;;3.90;1.45;;;;;;;;;;5051087;28;20036;-61
2022/11/07 10:50:40;;;;;;;2.40;1.00;;;;;;;;;;5036264;28;20041;-60
2022/11/07 10:53:08;;;;;;;2.72;1.30;;;;;;;;;;5036571;28;20033;-63
2022/11/07 10:55:46;;;;;;;6.07;1.63;;;;;;;;;;5036370;28;20084;-60
2022/11/07 10:58:26;;;;;;;2.92;1.40;;;;;;;;;;5037666;28;20618;-62
2022/11/07 11:01:11;;;;;;;3.90;1.40;;;;;;;;;;5035318;28;20137;-60
2022/11/07 11:03:46;;;;;;;1.98;0.90;;;;;;;;;;5036404;28;20132;-60
2022/11/07 11:06:31;;;;;;;3.63;1.40;;;;;;;;;;5035565;28;20091;-63
2022/11/07 11:08:58;;;;;;;4.40;1.90;;;;;;;;;;5038174;28;20884;-61
2022/11/07 11:11:28;;;;;;;1.73;0.70;;;;;;;;;;5037760;28;20136;-60
2022/11/07 11:14:05;;;;;;;2.58;1.23;;;;;;;;;;5040110;28;20119;-57
2022/11/07 11:16:34;;;;;;;0.57;0.30;;;;;;;;;;5037441;28;20045;-61
2022/11/07 11:19:02;;;;;;;2.90;1.30;;;;;;;;;;5036255;28;20405;-63
2022/11/07 11:21:42;;;;;;;2.58;1.15;;;;;;;;;;5035627;28;20029;-60
2022/11/07 11:24:21;;;;;;;2.30;1.05;;;;;;;;;;5038357;28;20072;-61
2022/11/07 11:26:49;;;;;;;1.95;0.80;;;;;;;;;;5037798;28;20048;-62
2022/11/07 11:29:36;;;;;;;3.35;1.30;;;;;;;;;;5039587;28;20041;-60
2022/11/07 11:32:03;;;;;;;2.10;0.88;;;;;;;;;;5028862;28;20163;-58
2022/11/07 11:34:48;;;;;;;1.02;0.50;;;;;;;;;;5036945;28;20055;-62
2022/11/07 11:37:19;;;;;;;0.73;0.60;;;;;;;;;;5037885;28;20489;-58
2022/11/07 11:39:46;;;;;;;2.75;1.23;;;;;;;;;;5035567;28;20577;-60
2022/11/07 11:42:19;;;;;;;1.92;0.98;;;;;;;;;;5035847;28;20585;-60
2022/11/07 11:44:45;;;;;;;2.38;1.20;;;;;;;;;;5037270;28;20509;-60
2022/11/07 11:47:33;;;;;;;2.17;0.93;;;;;;;;;;5038276;28;20045;-61
2022/11/07 11:50:09;;;;;;;3.45;1.17;;;;;;;;;;5038578;28;20584;-63
2022/11/07 11:52:35;;;;;;;2.00;0.90;;;;;;;;;;5036107;28;20049;-58
2022/11/07 11:55:02;;;;;;;3.72;1.55;;;;;;;;;;5037179;28;20148;-57
2022/11/07 11:57:44;;;;;;;1.88;0.82;;;;;;;;;;5036226;28;20087;-62
2022/11/07 12:00:15;;;;;;;1.15;0.63;;;;;;;;;;5038178;28;20087;-61
2022/11/07 12:03:07;;;;;;;5.43;1.83;;;;;;;;;;5035800;28;20045;-59
2022/11/07 12:05:39;;;;;;;4.30;1.20;;;;;;;;;;5036825;28;20040;-60
2022/11/07 12:08:16;;;;;;;1.00;0.60;;;;;;;;;;5038372;28;20795;-60
2022/11/07 12:10:42;;;;;;;2.53;0.75;;;;;;;;;;5039013;28;20516;-62
2022/11/07 12:13:28;;;;;;;2.30;0.93;;;;;;;;;;5041613;28;20533;-59
2022/11/07 12:16:13;;;;;;;3.45;1.35;;;;;;;;;;5041207;28;20044;-61
2022/11/07 12:18:46;;;;;;;3.65;1.55;;;;;;;;;;5040193;28;20044;-63
2022/11/07 12:21:16;;;;;;;2.88;1.13;;;;;;;;;;5038271;28;20124;-64
2022/11/07 12:23:58;;;;;;;0.70;0.50;;;;;;;;;;5041448;28;20064;-59
2022/11/07 12:26:45;;;;;;;2.00;0.90;;;;;;;;;;5041088;28;20083;-60
2022/11/07 12:29:23;;;;;;;3.90;1.20;;;;;;;;;;5014842;28;20479;-60
2022/11/07 12:31:55;;;;;;;2.30;1.20;;;;;;;;;;5022916;28;20046;-61
2022/11/07 12:34:21;;;;;;;2.15;1.08;;;;;;;;;;5022742;28;20059;-61
2022/11/07 12:36:51;;;;;;;1.88;0.80;;;;;;;;;;5021983;28;20187;-61
2022/11/07 12:39:26;;;;;;;2.97;1.27;;;;;;;;;;5020566;28;20533;-61
2022/11/07 12:41:53;;;;;;;5.80;2.10;;;;;;;;;;5046931;28;20033;-61
2022/11/07 12:44:42;;;;;;;4.65;1.33;;;;;;;;;;5026153;28;20067;-60
2022/11/07 12:47:29;;;;;;;1.10;0.85;;;;;;;;;;5039384;28;20073;-60
2022/11/07 12:49:58;;;;;;;1.67;0.93;;;;;;;;;;5038867;28;20040;-60
2022/11/07 12:52:40;;;;;;;1.17;0.65;;;;;;;;;;5042873;28;20037;-61
2022/11/07 12:55:13;;;;;;;1.77;0.98;;;;;;;;;;5041711;28;20056;-61
2022/11/07 12:57:41;;;;;;;4.70;1.98;;;;;;;;;;5042430;28;20569;-62
2022/11/07 13:00:14;;;;;;;3.78;1.85;;;;;;;;;;5042417;28;20037;-61
2022/11/07 13:02:54;;;;;;;3.63;1.83;;;;;;;;;;5040237;28;20052;-62
2022/11/07 13:05:43;;;;;;;3.15;1.40;;;;;;;;;;5042103;28;20090;-60
2022/11/07 13:08:17;;;;;;;2.78;1.38;;;;;;;;;;5033595;28;20033;-62
2022/11/07 13:10:43;;;;;;;;;;;;;;;;;;5042004;28;20080;-63
2022/11/07 13:13:13;;;;;;;3.53;1.35;;;;;;;;;;5043386;28;20404;-61
2022/11/07 13:15:40;;;;;;;2.65;1.33;;;;;;;;;;5041826;28;20436;-61
2022/11/07 13:18:27;;;;;;;10.75;2.22;;;;;;;;;;5046725;28;20097;-64
2022/11/07 13:21:02;;;;;;;1.15;0.65;;;;;;;;;;5039694;28;20043;-60
2022/11/07 13:23:29;;;;;;;3.70;1.80;;;;;;;;;;5038613;28;21648;-60
2022/11/07 13:26:02;;;;;;;13.38;1.88;;;;;;;;;;5039610;28;21766;-62
2022/11/07 13:28:39;;;;;;;1.40;0.90;;;;;;;;;;5037782;28;20402;-64
2022/11/07 13:31:06;;;;;;;2.13;1.17;;;;;;;;;;5038050;28;21775;-62
2022/11/07 13:33:34;;;;;;;4.38;2.13;;;;;;;;;;5029516;28;20769;-63
2022/11/07 13:36:19;;;;;;;3.22;1.50;;;;;;;;;;5040629;28;20053;-62
2022/11/07 13:38:51;;;;;;;4.15;1.65;;;;;;;;;;5028357;28;20072;-62
2022/11/07 13:41:19;;;;;;;3.08;1.40;;;;;;;;;;5052722;28;20564;-61
2022/11/07 13:43:45;;;;;;;4.25;1.60;;;;;;;;;;5038506;28;21711;-60
2022/11/07 13:46:32;;;;;;;3.70;1.88;;;;;;;;;;5040203;28;20087;-60
2022/11/07 13:49:10;;;;;;;3.38;1.60;;;;;;;;;;5038479;28;20063;-65
2022/11/07 13:51:45;;;;;;;7.32;2.33;;;;;;;;;;5038380;28;20044;-59
2022/11/07 13:54:27;;;;;;;3.95;1.58;;;;;;;;;;5039608;28;20037;-60
2022/11/07 13:57:01;;;;;;;2.55;1.13;;;;;;;;;;5035313;28;20076;-59
2022/11/07 13:59:27;;;;;;;2.90;1.13;;;;;;;;;;5038253;28;20576;-61
2022/11/07 14:01:56;;;;;;;2.35;0.98;;;;;;;;;;5038334;28;20056;-61
2022/11/07 14:04:26;;;;;;;1.80;0.75;;;;;;;;;;5027280;28;20064;-61
2022/11/07 14:06:55;;;;;;;1.73;0.77;;;;;;;;;;5038405;28;20040;-62
2022/11/07 14:09:22;;;;;;;2.45;0.88;;;;;;;;;;5044391;28;20052;-60
2022/11/07 14:11:51;;;;;;;2.75;1.20;;;;;;;;;;5039009;28;20102;-62
2022/11/07 14:14:18;;;;;;;2.13;0.80;;;;;;;;;;5017401;28;20063;-63
2022/11/07 14:16:47;;;;;;;3.47;1.08;;;;;;;;;;5025977;28;20053;-63
2022/11/07 14:19:15;;;;;;;2.85;1.08;;;;;;;;;;5036185;28;20163;-61
2022/11/07 14:21:43;;;;;;;0.40;0.40;;;;;;;;;;5038997;28;20052;-61
2022/11/07 14:24:21;;;;;;;2.65;1.00;;;;;;;;;;5039955;28;20087;-61
2022/11/07 14:26:58;;;;;;;2.30;0.90;;;;;;;;;;5038916;28;20529;-63
2022/11/07 14:29:25;;;;;;;2.97;1.20;;;;;;;;;;5044763;28;20935;-63
2022/11/07 14:31:51;;;;;;;2.20;0.93;;;;;;;;;;5038571;28;20052;-64
2022/11/07 14:34:19;;;;;;;4.30;1.27;;;;;;;;;;5037141;28;20517;-64
2022/11/07 14:36:46;;;;;;;3.47;1.02;;;;;;;;;;5040446;28;20067;-64
2022/11/07 14:39:14;;;;;;;1.58;0.52;;;;;;;;;;5044190;28;20426;-64
2022/11/07 14:41:41;;;;;;;3.33;0.85;;;;;;;;;;5035848;28;20033;-62
2022/11/07 14:44:12;;;;;;;4.35;1.30;;;;;;;;;;5037236;28;20059;-56
2022/11/07 14:46:39;;;;;;;1.42;0.80;;;;;;;;;;5029735;28;20067;-62
2022/11/07 14:49:06;;;;;;;3.22;1.23;;;;;;;;;;5039456;22;20464;-63
2022/11/07 14:51:32;;;;;;;2.45;1.15;;;;;;;;;;5037150;28;20037;-60
2022/11/07 14:53:59;;;;;;;2.60;0.88;;;;;;;;;;5038147;28;20391;-62
2022/11/07 14:56:29;;;;;;;4.07;1.20;;;;;;;;;;5038434;28;20061;-61
2022/11/07 14:58:56;;;;;;;2.55;1.00;;;;;;;;;;5037597;28;20041;-60
2022/11/07 15:01:28;;;;;;;3.70;1.17;;;;;;;;;;5036657;28;22049;-60
2022/11/07 15:03:56;;;;;;;3.20;1.30;;;;;;;;;;5037482;28;20501;-58
2022/11/07 15:06:25;;;;;;;6.00;1.45;;;;;;;;;;5038479;28;20083;-60
2022/11/07 15:08:55;;;;;;;3.05;1.15;;;;;;;;;;5038253;28;20440;-64